createdAt,value
2023-11-07T00:07:56.464Z,78.46
2023-11-07T00:17:58.947Z,78.57
2023-11-07T00:27:59.979Z,78.72
2023-11-07T00:38:01.407Z,78.84
2023-11-07T00:48:01.508Z,78.89
2023-11-07T00:58:01.415Z,78.89
2023-11-07T01:08:02.993Z,78.84
2023-11-07T01:18:03.639Z,78.83
2023-11-07T01:28:03.485Z,78.79
2023-11-07T01:38:03.981Z,78.79
2023-11-07T01:48:04.542Z,78.79
2023-11-07T01:58:21.941Z,78.77
2023-11-07T02:08:23.610Z,78.65
2023-11-07T02:18:23.646Z,78.55
2023-11-07T02:28:23.500Z,78.57
2023-11-07T02:38:24.337Z,78.61
2023-11-07T02:48:24.740Z,78.71
2023-11-07T02:58:26.738Z,78.78
2023-11-07T03:08:28.392Z,78.78
2023-11-07T03:18:29.116Z,78.79
2023-11-07T03:28:29.611Z,78.81
2023-11-07T03:38:29.656Z,78.81
2023-11-07T03:48:29.717Z,78.71
2023-11-07T03:58:29.625Z,78.63
2023-11-07T04:08:29.679Z,78.65
2023-11-07T04:18:30.387Z,78.68
2023-11-07T04:28:31.866Z,78.62
2023-11-07T04:38:32.894Z,78.66
2023-11-07T04:48:35.449Z,78.75
2023-11-07T04:58:56.430Z,78.77
2023-11-07T05:08:41.354Z,78.75
2023-11-07T05:18:44.890Z,78.73
2023-11-07T05:28:46.304Z,78.72
2023-11-07T05:38:50.128Z,78.72
2023-11-07T05:48:52.323Z,78.72
2023-11-07T05:58:53.891Z,78.71
2023-11-07T06:08:54.154Z,78.72
2023-11-07T06:18:53.939Z,78.68
2023-11-07T06:28:55.770Z,78.66
2023-11-07T06:38:55.878Z,78.70
2023-11-07T06:48:58.775Z,78.72
2023-11-07T06:58:57.931Z,78.75
2023-11-07T07:08:59.845Z,78.76
2023-11-07T07:18:59.975Z,78.72
2023-11-07T07:29:01.979Z,78.79
2023-11-07T07:39:01.963Z,78.81
2023-11-07T07:49:02.542Z,78.81
2023-11-07T07:59:04.939Z,78.82
2023-11-07T08:09:05.055Z,78.81
2023-11-07T08:19:05.077Z,78.74
2023-11-07T08:29:06.914Z,78.63
2023-11-07T08:39:11.071Z,78.49
2023-11-07T08:49:11.128Z,78.35
2023-11-07T08:59:11.418Z,78.00
2023-11-07T09:09:20.016Z,77.60
2023-11-07T09:19:21.155Z,77.15
2023-11-07T09:29:21.356Z,76.76
2023-11-07T09:39:22.254Z,76.58
2023-11-07T09:49:22.437Z,75.78
2023-11-07T09:59:24.346Z,75.14
2023-11-07T10:09:24.560Z,74.62
2023-11-07T10:19:26.421Z,74.46
2023-11-07T10:29:31.946Z,74.26
2023-11-07T10:39:32.170Z,73.90
2023-11-07T10:49:32.367Z,73.49
2023-11-07T10:59:34.077Z,73.27
2023-11-07T11:09:34.161Z,73.14
2023-11-07T11:19:34.752Z,72.50
2023-11-07T11:29:35.239Z,71.37
2023-11-07T11:39:36.958Z,71.25
2023-11-07T11:49:40.070Z,71.39
2023-11-07T11:59:42.464Z,71.06
2023-11-07T12:09:46.100Z,70.01
2023-11-07T12:19:47.709Z,68.96
2023-11-07T12:29:49.550Z,68.91
2023-11-07T12:39:49.573Z,68.85
2023-11-07T12:49:49.310Z,68.56
2023-11-07T12:59:49.379Z,68.47
2023-11-07T13:09:50.429Z,68.47
2023-11-07T13:19:51.373Z,68.58
2023-11-07T13:29:53.404Z,68.80
2023-11-07T13:39:53.357Z,68.84
2023-11-07T13:49:53.378Z,68.57
2023-11-07T13:59:56.135Z,69.23
2023-11-07T14:09:58.270Z,70.14
2023-11-07T14:19:58.393Z,70.99
2023-11-07T14:30:08.918Z,71.35
2023-11-07T14:40:04.470Z,71.49
2023-11-07T14:50:06.371Z,71.67
2023-11-07T15:00:08.629Z,71.76
2023-11-07T15:10:10.398Z,71.65
2023-11-07T15:20:12.697Z,71.68
2023-11-07T15:30:13.696Z,71.83
2023-11-07T15:40:14.189Z,71.90
2023-11-07T15:50:15.572Z,72.05
2023-11-07T16:00:16.825Z,72.16
2023-11-07T16:10:16.542Z,72.21
2023-11-07T16:20:22.592Z,72.41
2023-11-07T16:30:19.691Z,72.73
2023-11-07T16:40:19.825Z,73.03
2023-11-07T16:50:21.116Z,73.32
2023-11-07T17:00:23.137Z,73.48
2023-11-07T17:10:24.845Z,73.63
2023-11-07T17:20:26.142Z,73.86
2023-11-07T17:30:27.904Z,74.03
2023-11-07T17:40:28.734Z,74.10
2023-11-07T17:50:30.208Z,74.25
2023-11-07T18:00:31.325Z,74.45
2023-11-07T18:10:32.730Z,74.69
2023-11-07T18:20:32.766Z,75.05
2023-11-07T18:30:32.801Z,75.30
2023-11-07T18:40:32.772Z,75.46
2023-11-07T18:50:34.250Z,75.66
2023-11-07T19:00:36.718Z,75.82
2023-11-07T19:10:40.093Z,75.96
2023-11-07T19:20:41.244Z,76.11
2023-11-07T19:30:42.305Z,76.27
2023-11-07T19:40:44.371Z,76.36
2023-11-07T19:50:47.432Z,76.41
2023-11-07T20:00:51.403Z,76.43
2023-11-07T20:10:53.783Z,76.45
2023-11-07T20:20:53.871Z,76.49
2023-11-07T20:30:53.916Z,76.61
2023-11-07T20:40:54.017Z,76.78
2023-11-07T20:50:54.324Z,76.91
2023-11-07T21:00:53.988Z,77.07
2023-11-07T21:10:55.847Z,77.22
2023-11-07T21:20:56.213Z,77.34
2023-11-07T21:30:56.606Z,77.44
2023-11-07T21:40:59.178Z,77.59
2023-11-07T21:51:06.002Z,77.78
2023-11-07T22:01:01.713Z,77.91
2023-11-07T22:11:02.046Z,77.94
2023-11-07T22:21:05.357Z,77.98
2023-11-07T22:31:05.150Z,78.04
2023-11-07T22:41:08.640Z,78.06
2023-11-07T22:51:11.358Z,78.12
2023-11-07T23:01:12.928Z,78.11
2023-11-07T23:11:15.070Z,78.08
2023-11-07T23:21:15.152Z,77.98
2023-11-07T23:31:17.066Z,77.87
2023-11-07T23:41:19.081Z,77.77
2023-11-07T23:51:21.769Z,77.68
